sensor_id;sensor_type;location;lat;lon;timestamp;P1;durP1;ratioP1;P2;durP2;ratioP2
63398;SDS011;49533;-34.520;150.798;2023-02-15T00:01:16;4.18;;;1.17;;
63398;SDS011;49533;-34.520;150.798;2023-02-15T00:03:43;4.97;;;1.15;;
63398;SDS011;49533;-34.520;150.798;2023-02-15T00:06:10;3.13;;;1.00;;
63398;SDS011;49533;-34.520;150.798;2023-02-15T00:08:38;8.73;;;1.90;;
63398;SDS011;49533;-34.520;150.798;2023-02-15T00:11:06;5.53;;;1.30;;
63398;SDS011;49533;-34.520;150.798;2023-02-15T00:13:34;5.60;;;1.67;;
63398;SDS011;49533;-34.520;150.798;2023-02-15T00:16:05;2.70;;;1.20;;
63398;SDS011;49533;-34.520;150.798;2023-02-15T00:18:33;7.50;;;1.70;;
63398;SDS011;49533;-34.520;150.798;2023-02-15T00:21:03;4.07;;;1.20;;
63398;SDS011;49533;-34.520;150.798;2023-02-15T00:23:32;6.57;;;1.38;;
63398;SDS011;49533;-34.520;150.798;2023-02-15T00:26:04;5.03;;;1.15;;
63398;SDS011;49533;-34.520;150.798;2023-02-15T00:28:33;6.40;;;1.27;;
63398;SDS011;49533;-34.520;150.798;2023-02-15T00:31:07;4.18;;;1.40;;
63398;SDS011;49533;-34.520;150.798;2023-02-15T00:33:36;6.63;;;1.90;;
63398;SDS011;49533;-34.520;150.798;2023-02-15T00:36:05;7.28;;;1.70;;
63398;SDS011;49533;-34.520;150.798;2023-02-15T00:38:33;5.22;;;1.90;;
63398;SDS011;49533;-34.520;150.798;2023-02-15T00:41:02;10.88;;;2.33;;
63398;SDS011;49533;-34.520;150.798;2023-02-15T00:43:31;7.68;;;2.03;;
63398;SDS011;49533;-34.520;150.798;2023-02-15T00:45:59;8.27;;;1.90;;
63398;SDS011;49533;-34.520;150.798;2023-02-15T00:48:27;4.38;;;1.85;;
63398;SDS011;49533;-34.520;150.798;2023-02-15T00:50:55;8.90;;;1.80;;
63398;SDS011;49533;-34.520;150.798;2023-02-15T00:53:25;4.85;;;1.73;;
63398;SDS011;49533;-34.520;150.798;2023-02-15T00:55:53;5.45;;;2.70;;
63398;SDS011;49533;-34.520;150.798;2023-02-15T00:58:20;11.23;;;1.77;;
63398;SDS011;49533;-34.520;150.798;2023-02-15T01:00:47;5.70;;;2.28;;
63398;SDS011;49533;-34.520;150.798;2023-02-15T01:03:16;7.13;;;2.17;;
63398;SDS011;49533;-34.520;150.798;2023-02-15T01:05:44;7.03;;;2.03;;
63398;SDS011;49533;-34.520;150.798;2023-02-15T01:08:12;7.07;;;2.00;;
63398;SDS011;49533;-34.520;150.798;2023-02-15T01:10:40;5.88;;;2.72;;
63398;SDS011;49533;-34.520;150.798;2023-02-15T01:13:10;6.15;;;2.58;;
63398;SDS011;49533;-34.520;150.798;2023-02-15T01:15:37;6.95;;;2.33;;
63398;SDS011;49533;-34.520;150.798;2023-02-15T01:18:04;7.40;;;2.92;;
63398;SDS011;49533;-34.520;150.798;2023-02-15T01:20:33;4.68;;;2.20;;
63398;SDS011;49533;-34.520;150.798;2023-02-15T01:23:05;6.90;;;2.28;;
63398;SDS011;49533;-34.520;150.798;2023-02-15T01:25:33;8.02;;;2.58;;
63398;SDS011;49533;-34.520;150.798;2023-02-15T01:28:02;6.57;;;1.85;;
63398;SDS011;49533;-34.520;150.798;2023-02-15T01:30:29;6.70;;;2.10;;
63398;SDS011;49533;-34.520;150.798;2023-02-15T01:32:56;12.85;;;2.72;;
63398;SDS011;49533;-34.520;150.798;2023-02-15T01:35:24;3.63;;;1.90;;
63398;SDS011;49533;-34.520;150.798;2023-02-15T01:37:51;7.40;;;2.38;;
63398;SDS011;49533;-34.520;150.798;2023-02-15T01:40:18;10.15;;;2.97;;
63398;SDS011;49533;-34.520;150.798;2023-02-15T01:42:45;7.90;;;2.65;;
63398;SDS011;49533;-34.520;150.798;2023-02-15T01:45:19;5.82;;;2.10;;
63398;SDS011;49533;-34.520;150.798;2023-02-15T01:47:53;4.30;;;2.08;;
63398;SDS011;49533;-34.520;150.798;2023-02-15T01:50:40;6.00;;;2.58;;
63398;SDS011;49533;-34.520;150.798;2023-02-15T01:53:17;4.03;;;1.88;;
63398;SDS011;49533;-34.520;150.798;2023-02-15T01:56:05;3.67;;;2.38;;
63398;SDS011;49533;-34.520;150.798;2023-02-15T01:58:38;6.50;;;2.08;;
63398;SDS011;49533;-34.520;150.798;2023-02-15T02:01:06;3.53;;;1.83;;
63398;SDS011;49533;-34.520;150.798;2023-02-15T02:03:38;4.40;;;1.92;;
63398;SDS011;49533;-34.520;150.798;2023-02-15T02:06:19;3.35;;;1.63;;
63398;SDS011;49533;-34.520;150.798;2023-02-15T02:08:47;7.30;;;1.42;;
63398;SDS011;49533;-34.520;150.798;2023-02-15T02:11:14;5.57;;;2.00;;
63398;SDS011;49533;-34.520;150.798;2023-02-15T02:13:42;6.35;;;2.08;;
63398;SDS011;49533;-34.520;150.798;2023-02-15T02:16:15;6.63;;;2.05;;
63398;SDS011;49533;-34.520;150.798;2023-02-15T02:22:03;7.05;;;2.15;;
63398;SDS011;49533;-34.520;150.798;2023-02-15T02:28:08;5.10;;;1.63;;
63398;SDS011;49533;-34.520;150.798;2023-02-15T02:31:05;6.68;;;1.70;;
63398;SDS011;49533;-34.520;150.798;2023-02-15T02:34:05;6.90;;;2.10;;
63398;SDS011;49533;-34.520;150.798;2023-02-15T02:36:49;5.32;;;1.80;;
63398;SDS011;49533;-34.520;150.798;2023-02-15T02:39:39;12.63;;;2.45;;
63398;SDS011;49533;-34.520;150.798;2023-02-15T02:42:19;5.88;;;2.38;;
63398;SDS011;49533;-34.520;150.798;2023-02-15T02:45:01;6.05;;;2.25;;
63398;SDS011;49533;-34.520;150.798;2023-02-15T02:47:34;6.22;;;1.67;;
63398;SDS011;49533;-34.520;150.798;2023-02-15T02:50:08;5.75;;;2.28;;
63398;SDS011;49533;-34.520;150.798;2023-02-15T02:52:41;8.82;;;2.83;;
63398;SDS011;49533;-34.520;150.798;2023-02-15T02:55:15;7.07;;;2.47;;
63398;SDS011;49533;-34.520;150.798;2023-02-15T02:58:10;9.15;;;3.03;;
63398;SDS011;49533;-34.520;150.798;2023-02-15T03:00:46;8.73;;;2.92;;
63398;SDS011;49533;-34.520;150.798;2023-02-15T03:03:23;5.43;;;2.35;;
63398;SDS011;49533;-34.520;150.798;2023-02-15T03:05:58;6.32;;;2.10;;
63398;SDS011;49533;-34.520;150.798;2023-02-15T03:08:31;4.75;;;2.85;;
63398;SDS011;49533;-34.520;150.798;2023-02-15T03:11:02;6.45;;;2.90;;
63398;SDS011;49533;-34.520;150.798;2023-02-15T03:13:30;3.95;;;2.17;;
63398;SDS011;49533;-34.520;150.798;2023-02-15T03:15:59;7.10;;;2.63;;
63398;SDS011;49533;-34.520;150.798;2023-02-15T03:18:43;10.23;;;2.85;;
63398;SDS011;49533;-34.520;150.798;2023-02-15T03:21:21;6.10;;;2.47;;
63398;SDS011;49533;-34.520;150.798;2023-02-15T03:23:58;8.07;;;3.00;;
63398;SDS011;49533;-34.520;150.798;2023-02-15T03:26:33;5.95;;;2.88;;
63398;SDS011;49533;-34.520;150.798;2023-02-15T03:29:02;8.00;;;2.10;;
63398;SDS011;49533;-34.520;150.798;2023-02-15T03:31:32;6.32;;;2.17;;
63398;SDS011;49533;-34.520;150.798;2023-02-15T03:34:04;8.43;;;2.85;;
63398;SDS011;49533;-34.520;150.798;2023-02-15T03:36:41;6.13;;;1.95;;
63398;SDS011;49533;-34.520;150.798;2023-02-15T03:39:20;6.30;;;1.85;;
63398;SDS011;49533;-34.520;150.798;2023-02-15T03:41:58;6.43;;;2.28;;
63398;SDS011;49533;-34.520;150.798;2023-02-15T03:44:42;5.55;;;1.95;;
63398;SDS011;49533;-34.520;150.798;2023-02-15T03:47:25;6.93;;;2.08;;
63398;SDS011;49533;-34.520;150.798;2023-02-15T03:50:00;5.55;;;1.90;;
63398;SDS011;49533;-34.520;150.798;2023-02-15T03:52:53;5.40;;;1.95;;
63398;SDS011;49533;-34.520;150.798;2023-02-15T03:55:23;6.45;;;2.15;;
63398;SDS011;49533;-34.520;150.798;2023-02-15T03:57:51;4.22;;;1.70;;
63398;SDS011;49533;-34.520;150.798;2023-02-15T04:00:30;8.30;;;3.30;;
63398;SDS011;49533;-34.520;150.798;2023-02-15T04:03:19;9.45;;;3.30;;
63398;SDS011;49533;-34.520;150.798;2023-02-15T04:05:59;8.98;;;3.53;;
63398;SDS011;49533;-34.520;150.798;2023-02-15T04:08:29;7.18;;;3.15;;
63398;SDS011;49533;-34.520;150.798;2023-02-15T04:11:08;6.75;;;3.10;;
63398;SDS011;49533;-34.520;150.798;2023-02-15T04:13:35;9.50;;;3.92;;
63398;SDS011;49533;-34.520;150.798;2023-02-15T04:16:02;5.28;;;3.05;;
63398;SDS011;49533;-34.520;150.798;2023-02-15T04:18:31;5.93;;;3.20;;
63398;SDS011;49533;-34.520;150.798;2023-02-15T04:21:13;6.90;;;2.50;;
63398;SDS011;49533;-34.520;150.798;2023-02-15T04:23:52;5.30;;;3.05;;
63398;SDS011;49533;-34.520;150.798;2023-02-15T04:26:30;6.13;;;2.97;;
63398;SDS011;49533;-34.520;150.798;2023-02-15T04:28:57;6.45;;;2.97;;
63398;SDS011;49533;-34.520;150.798;2023-02-15T04:31:24;5.68;;;2.92;;
63398;SDS011;49533;-34.520;150.798;2023-02-15T04:33:51;4.68;;;2.10;;
63398;SDS011;49533;-34.520;150.798;2023-02-15T04:36:19;6.75;;;2.30;;
63398;SDS011;49533;-34.520;150.798;2023-02-15T04:38:47;5.57;;;2.78;;
63398;SDS011;49533;-34.520;150.798;2023-02-15T04:41:14;7.60;;;2.60;;
63398;SDS011;49533;-34.520;150.798;2023-02-15T04:43:41;6.07;;;2.13;;
63398;SDS011;49533;-34.520;150.798;2023-02-15T04:46:08;6.65;;;2.42;;
63398;SDS011;49533;-34.520;150.798;2023-02-15T04:48:35;4.65;;;2.10;;
63398;SDS011;49533;-34.520;150.798;2023-02-15T04:51:05;4.95;;;1.60;;
63398;SDS011;49533;-34.520;150.798;2023-02-15T04:53:34;5.63;;;1.90;;
63398;SDS011;49533;-34.520;150.798;2023-02-15T04:56:01;5.80;;;2.03;;
63398;SDS011;49533;-34.520;150.798;2023-02-15T04:58:29;3.42;;;1.60;;
63398;SDS011;49533;-34.520;150.798;2023-02-15T05:00:56;4.95;;;1.95;;
63398;SDS011;49533;-34.520;150.798;2023-02-15T05:03:24;5.68;;;2.03;;
63398;SDS011;49533;-34.520;150.798;2023-02-15T05:05:51;3.90;;;1.63;;
63398;SDS011;49533;-34.520;150.798;2023-02-15T05:08:19;6.15;;;1.73;;
63398;SDS011;49533;-34.520;150.798;2023-02-15T05:10:48;4.25;;;1.52;;
63398;SDS011;49533;-34.520;150.798;2023-02-15T05:13:15;3.70;;;1.73;;
63398;SDS011;49533;-34.520;150.798;2023-02-15T05:15:46;4.20;;;1.42;;
63398;SDS011;49533;-34.520;150.798;2023-02-15T05:18:15;4.13;;;1.60;;
63398;SDS011;49533;-34.520;150.798;2023-02-15T05:20:43;6.15;;;1.30;;
63398;SDS011;49533;-34.520;150.798;2023-02-15T05:23:10;4.75;;;1.73;;
63398;SDS011;49533;-34.520;150.798;2023-02-15T05:25:38;3.42;;;1.45;;
63398;SDS011;49533;-34.520;150.798;2023-02-15T05:28:17;6.65;;;1.38;;
63398;SDS011;49533;-34.520;150.798;2023-02-15T05:30:45;2.63;;;1.23;;
63398;SDS011;49533;-34.520;150.798;2023-02-15T05:33:14;3.92;;;1.58;;
63398;SDS011;49533;-34.520;150.798;2023-02-15T05:35:44;2.95;;;1.40;;
63398;SDS011;49533;-34.520;150.798;2023-02-15T05:38:11;4.43;;;1.70;;
63398;SDS011;49533;-34.520;150.798;2023-02-15T05:40:39;4.00;;;1.60;;
63398;SDS011;49533;-34.520;150.798;2023-02-15T05:43:06;4.22;;;1.60;;
63398;SDS011;49533;-34.520;150.798;2023-02-15T05:45:33;3.00;;;1.13;;
63398;SDS011;49533;-34.520;150.798;2023-02-15T05:48:00;5.05;;;1.60;;
63398;SDS011;49533;-34.520;150.798;2023-02-15T05:50:27;4.25;;;1.33;;
63398;SDS011;49533;-34.520;150.798;2023-02-15T05:52:54;3.38;;;1.25;;
63398;SDS011;49533;-34.520;150.798;2023-02-15T05:55:22;2.88;;;1.38;;
63398;SDS011;49533;-34.520;150.798;2023-02-15T05:57:49;3.90;;;1.50;;
63398;SDS011;49533;-34.520;150.798;2023-02-15T06:00:16;4.22;;;1.75;;
63398;SDS011;49533;-34.520;150.798;2023-02-15T06:02:44;4.22;;;1.52;;
63398;SDS011;49533;-34.520;150.798;2023-02-15T06:05:11;4.47;;;1.85;;
63398;SDS011;49533;-34.520;150.798;2023-02-15T06:07:38;6.28;;;1.70;;
63398;SDS011;49533;-34.520;150.798;2023-02-15T06:10:10;5.05;;;1.58;;
63398;SDS011;49533;-34.520;150.798;2023-02-15T06:12:38;5.68;;;1.70;;
63398;SDS011;49533;-34.520;150.798;2023-02-15T06:15:05;4.85;;;1.63;;
63398;SDS011;49533;-34.520;150.798;2023-02-15T06:17:32;4.15;;;1.35;;
63398;SDS011;49533;-34.520;150.798;2023-02-15T06:20:00;3.97;;;1.35;;
63398;SDS011;49533;-34.520;150.798;2023-02-15T06:22:27;5.85;;;2.00;;
63398;SDS011;49533;-34.520;150.798;2023-02-15T06:24:54;7.57;;;1.77;;
63398;SDS011;49533;-34.520;150.798;2023-02-15T06:27:21;5.50;;;1.33;;
63398;SDS011;49533;-34.520;150.798;2023-02-15T06:29:48;4.18;;;2.00;;
63398;SDS011;49533;-34.520;150.798;2023-02-15T06:32:15;2.55;;;1.40;;
63398;SDS011;49533;-34.520;150.798;2023-02-15T06:34:42;1.88;;;1.00;;
63398;SDS011;49533;-34.520;150.798;2023-02-15T06:37:09;6.28;;;1.25;;
63398;SDS011;49533;-34.520;150.798;2023-02-15T06:39:37;3.05;;;1.35;;
63398;SDS011;49533;-34.520;150.798;2023-02-15T06:42:04;3.78;;;1.30;;
63398;SDS011;49533;-34.520;150.798;2023-02-15T06:44:31;2.97;;;1.40;;
63398;SDS011;49533;-34.520;150.798;2023-02-15T06:46:58;4.60;;;1.35;;
63398;SDS011;49533;-34.520;150.798;2023-02-15T06:49:25;3.42;;;1.15;;
63398;SDS011;49533;-34.520;150.798;2023-02-15T06:51:52;2.65;;;1.30;;
63398;SDS011;49533;-34.520;150.798;2023-02-15T06:54:19;3.70;;;1.40;;
63398;SDS011;49533;-34.520;150.798;2023-02-15T06:56:46;3.42;;;1.55;;
63398;SDS011;49533;-34.520;150.798;2023-02-15T06:59:13;3.20;;;1.52;;
63398;SDS011;49533;-34.520;150.798;2023-02-15T07:01:41;6.00;;;1.63;;
63398;SDS011;49533;-34.520;150.798;2023-02-15T07:04:09;5.25;;;1.77;;
63398;SDS011;49533;-34.520;150.798;2023-02-15T07:06:36;2.72;;;1.52;;
63398;SDS011;49533;-34.520;150.798;2023-02-15T07:09:03;2.00;;;1.23;;
63398;SDS011;49533;-34.520;150.798;2023-02-15T07:11:30;2.90;;;1.70;;
63398;SDS011;49533;-34.520;150.798;2023-02-15T07:14:09;2.45;;;1.27;;
63398;SDS011;49533;-34.520;150.798;2023-02-15T07:16:37;4.38;;;1.45;;
63398;SDS011;49533;-34.520;150.798;2023-02-15T07:19:04;2.60;;;1.60;;
63398;SDS011;49533;-34.520;150.798;2023-02-15T07:21:33;3.92;;;1.90;;
63398;SDS011;49533;-34.520;150.798;2023-02-15T07:24:00;5.53;;;1.90;;
63398;SDS011;49533;-34.520;150.798;2023-02-15T07:26:28;3.17;;;1.60;;
63398;SDS011;49533;-34.520;150.798;2023-02-15T07:28:56;6.03;;;1.92;;
63398;SDS011;49533;-34.520;150.798;2023-02-15T07:31:23;6.03;;;1.88;;
63398;SDS011;49533;-34.520;150.798;2023-02-15T07:33:51;2.92;;;1.50;;
63398;SDS011;49533;-34.520;150.798;2023-02-15T07:36:19;2.97;;;1.40;;
63398;SDS011;49533;-34.520;150.798;2023-02-15T07:38:46;2.80;;;1.35;;
63398;SDS011;49533;-34.520;150.798;2023-02-15T07:41:14;4.82;;;1.83;;
63398;SDS011;49533;-34.520;150.798;2023-02-15T07:43:42;5.03;;;1.80;;
63398;SDS011;49533;-34.520;150.798;2023-02-15T07:46:12;4.97;;;1.13;;
63398;SDS011;49533;-34.520;150.798;2023-02-15T07:48:42;5.45;;;1.70;;
63398;SDS011;49533;-34.520;150.798;2023-02-15T07:51:10;10.15;;;1.60;;
63398;SDS011;49533;-34.520;150.798;2023-02-15T07:53:38;3.78;;;1.13;;
63398;SDS011;49533;-34.520;150.798;2023-02-15T07:56:07;6.47;;;1.55;;
63398;SDS011;49533;-34.520;150.798;2023-02-15T07:58:36;3.75;;;1.35;;
63398;SDS011;49533;-34.520;150.798;2023-02-15T08:01:16;8.65;;;2.05;;
63398;SDS011;49533;-34.520;150.798;2023-02-15T08:03:45;5.55;;;2.08;;
63398;SDS011;49533;-34.520;150.798;2023-02-15T08:06:12;5.53;;;1.60;;
63398;SDS011;49533;-34.520;150.798;2023-02-15T08:08:40;4.53;;;1.65;;
63398;SDS011;49533;-34.520;150.798;2023-02-15T08:11:15;5.65;;;1.40;;
63398;SDS011;49533;-34.520;150.798;2023-02-15T08:13:55;5.63;;;1.75;;
63398;SDS011;49533;-34.520;150.798;2023-02-15T08:16:26;1.95;;;0.95;;
63398;SDS011;49533;-34.520;150.798;2023-02-15T08:18:58;7.23;;;1.57;;
63398;SDS011;49533;-34.520;150.798;2023-02-15T08:21:27;5.53;;;1.50;;
63398;SDS011;49533;-34.520;150.798;2023-02-15T08:23:55;4.47;;;1.05;;
63398;SDS011;49533;-34.520;150.798;2023-02-15T08:26:23;5.55;;;1.70;;
63398;SDS011;49533;-34.520;150.798;2023-02-15T08:28:52;5.97;;;1.40;;
63398;SDS011;49533;-34.520;150.798;2023-02-15T08:31:19;4.20;;;1.33;;
63398;SDS011;49533;-34.520;150.798;2023-02-15T08:33:47;4.00;;;1.10;;
63398;SDS011;49533;-34.520;150.798;2023-02-15T08:36:17;4.65;;;1.10;;
63398;SDS011;49533;-34.520;150.798;2023-02-15T08:38:46;4.22;;;1.75;;
63398;SDS011;49533;-34.520;150.798;2023-02-15T08:41:22;3.45;;;0.88;;
63398;SDS011;49533;-34.520;150.798;2023-02-15T08:43:52;3.67;;;1.08;;
63398;SDS011;49533;-34.520;150.798;2023-02-15T08:46:21;5.18;;;1.67;;
63398;SDS011;49533;-34.520;150.798;2023-02-15T08:48:49;5.75;;;1.25;;
63398;SDS011;49533;-34.520;150.798;2023-02-15T08:51:19;5.53;;;1.75;;
63398;SDS011;49533;-34.520;150.798;2023-02-15T08:53:50;3.90;;;1.35;;
63398;SDS011;49533;-34.520;150.798;2023-02-15T08:56:20;4.95;;;1.55;;
63398;SDS011;49533;-34.520;150.798;2023-02-15T08:58:49;2.15;;;0.90;;
63398;SDS011;49533;-34.520;150.798;2023-02-15T09:01:17;3.10;;;1.00;;
63398;SDS011;49533;-34.520;150.798;2023-02-15T09:03:49;3.72;;;1.20;;
63398;SDS011;49533;-34.520;150.798;2023-02-15T09:06:21;2.42;;;1.15;;
63398;SDS011;49533;-34.520;150.798;2023-02-15T09:08:49;3.72;;;1.38;;
63398;SDS011;49533;-34.520;150.798;2023-02-15T09:11:18;4.40;;;1.45;;
63398;SDS011;49533;-34.520;150.798;2023-02-15T09:13:51;2.20;;;0.82;;
63398;SDS011;49533;-34.520;150.798;2023-02-15T09:16:22;1.83;;;0.85;;
63398;SDS011;49533;-34.520;150.798;2023-02-15T09:18:51;4.15;;;1.15;;
63398;SDS011;49533;-34.520;150.798;2023-02-15T09:21:20;3.50;;;1.10;;
63398;SDS011;49533;-34.520;150.798;2023-02-15T09:23:51;3.50;;;1.17;;
63398;SDS011;49533;-34.520;150.798;2023-02-15T09:26:23;3.88;;;1.02;;
63398;SDS011;49533;-34.520;150.798;2023-02-15T09:28:51;3.63;;;1.40;;
63398;SDS011;49533;-34.520;150.798;2023-02-15T09:31:22;3.72;;;1.10;;
63398;SDS011;49533;-34.520;150.798;2023-02-15T09:33:51;2.67;;;1.10;;
63398;SDS011;49533;-34.520;150.798;2023-02-15T09:36:20;2.47;;;1.02;;
63398;SDS011;49533;-34.520;150.798;2023-02-15T09:38:55;6.00;;;1.75;;
63398;SDS011;49533;-34.520;150.798;2023-02-15T09:44:13;1.13;;;0.70;;
63398;SDS011;49533;-34.520;150.798;2023-02-15T09:50:12;4.00;;;1.52;;
63398;SDS011;49533;-34.520;150.798;2023-02-15T09:56:13;4.72;;;1.27;;
63398;SDS011;49533;-34.520;150.798;2023-02-15T09:59:10;5.10;;;1.42;;
63398;SDS011;49533;-34.520;150.798;2023-02-15T10:02:02;6.32;;;1.33;;
63398;SDS011;49533;-34.520;150.798;2023-02-15T10:04:44;4.88;;;1.17;;
63398;SDS011;49533;-34.520;150.798;2023-02-15T10:07:42;2.38;;;1.30;;
63398;SDS011;49533;-34.520;150.798;2023-02-15T10:13:51;3.58;;;1.30;;
63398;SDS011;49533;-34.520;150.798;2023-02-15T10:16:41;3.65;;;1.35;;
63398;SDS011;49533;-34.520;150.798;2023-02-15T10:19:29;5.50;;;1.45;;
63398;SDS011;49533;-34.520;150.798;2023-02-15T10:22:10;6.15;;;1.70;;
63398;SDS011;49533;-34.520;150.798;2023-02-15T10:27:46;4.85;;;1.65;;
63398;SDS011;49533;-34.520;150.798;2023-02-15T10:30:17;5.05;;;1.45;;
63398;SDS011;49533;-34.520;150.798;2023-02-15T10:33:01;4.82;;;1.25;;
63398;SDS011;49533;-34.520;150.798;2023-02-15T10:35:35;2.92;;;1.58;;
63398;SDS011;49533;-34.520;150.798;2023-02-15T10:38:20;4.15;;;1.40;;
63398;SDS011;49533;-34.520;150.798;2023-02-15T10:41:18;3.15;;;0.95;;
63398;SDS011;49533;-34.520;150.798;2023-02-15T10:44:12;5.35;;;1.75;;
63398;SDS011;49533;-34.520;150.798;2023-02-15T10:47:33;2.17;;;0.85;;
63398;SDS011;49533;-34.520;150.798;2023-02-15T10:50:06;3.97;;;1.50;;
63398;SDS011;49533;-34.520;150.798;2023-02-15T10:52:57;4.38;;;1.80;;
63398;SDS011;49533;-34.520;150.798;2023-02-15T10:55:46;2.97;;;0.93;;
63398;SDS011;49533;-34.520;150.798;2023-02-15T10:58:33;2.95;;;1.30;;
63398;SDS011;49533;-34.520;150.798;2023-02-15T11:01:22;6.30;;;2.13;;
63398;SDS011;49533;-34.520;150.798;2023-02-15T11:04:09;2.58;;;0.95;;
63398;SDS011;49533;-34.520;150.798;2023-02-15T11:06:59;2.08;;;1.02;;
63398;SDS011;49533;-34.520;150.798;2023-02-15T11:09:36;2.17;;;0.82;;
63398;SDS011;49533;-34.520;150.798;2023-02-15T11:12:10;4.68;;;1.05;;
63398;SDS011;49533;-34.520;150.798;2023-02-15T11:14:50;5.05;;;0.80;;
63398;SDS011;49533;-34.520;150.798;2023-02-15T11:17:35;1.83;;;0.80;;
63398;SDS011;49533;-34.520;150.798;2023-02-15T11:20:09;4.05;;;1.35;;
63398;SDS011;49533;-34.520;150.798;2023-02-15T11:22:49;1.65;;;0.98;;
63398;SDS011;49533;-34.520;150.798;2023-02-15T11:25:28;4.20;;;1.73;;
63398;SDS011;49533;-34.520;150.798;2023-02-15T11:28:00;2.25;;;1.15;;
63398;SDS011;49533;-34.520;150.798;2023-02-15T11:30:40;3.00;;;1.20;;
63398;SDS011;49533;-34.520;150.798;2023-02-15T11:33:15;2.22;;;1.02;;
63398;SDS011;49533;-34.520;150.798;2023-02-15T11:35:49;1.55;;;0.98;;
63398;SDS011;49533;-34.520;150.798;2023-02-15T11:38:27;2.83;;;0.90;;
63398;SDS011;49533;-34.520;150.798;2023-02-15T11:40:59;3.03;;;1.10;;
63398;SDS011;49533;-34.520;150.798;2023-02-15T11:43:36;1.95;;;1.02;;
63398;SDS011;49533;-34.520;150.798;2023-02-15T11:46:11;2.50;;;0.90;;
63398;SDS011;49533;-34.520;150.798;2023-02-15T11:48:40;2.05;;;1.00;;
63398;SDS011;49533;-34.520;150.798;2023-02-15T11:51:09;3.88;;;1.75;;
63398;SDS011;49533;-34.520;150.798;2023-02-15T11:53:41;2.40;;;0.88;;
63398;SDS011;49533;-34.520;150.798;2023-02-15T11:56:16;1.95;;;0.60;;
63398;SDS011;49533;-34.520;150.798;2023-02-15T11:58:47;2.45;;;1.20;;
63398;SDS011;49533;-34.520;150.798;2023-02-15T12:04:06;2.70;;;1.20;;
63398;SDS011;49533;-34.520;150.798;2023-02-15T12:06:49;3.05;;;0.95;;
63398;SDS011;49533;-34.520;150.798;2023-02-15T12:09:30;3.38;;;0.88;;
63398;SDS011;49533;-34.520;150.798;2023-02-15T12:14:51;2.13;;;0.80;;
63398;SDS011;49533;-34.520;150.798;2023-02-15T12:17:20;2.92;;;0.80;;
63398;SDS011;49533;-34.520;150.798;2023-02-15T12:19:50;3.65;;;0.93;;
63398;SDS011;49533;-34.520;150.798;2023-02-15T12:22:22;3.95;;;1.15;;
63398;SDS011;49533;-34.520;150.798;2023-02-15T12:24:54;4.72;;;1.27;;
63398;SDS011;49533;-34.520;150.798;2023-02-15T12:27:29;2.95;;;1.02;;
63398;SDS011;49533;-34.520;150.798;2023-02-15T12:30:01;1.75;;;0.85;;
63398;SDS011;49533;-34.520;150.798;2023-02-15T12:32:47;2.70;;;0.88;;
63398;SDS011;49533;-34.520;150.798;2023-02-15T12:35:27;2.22;;;0.73;;
63398;SDS011;49533;-34.520;150.798;2023-02-15T12:38:00;2.22;;;1.23;;
63398;SDS011;49533;-34.520;150.798;2023-02-15T12:40:58;1.35;;;0.65;;
63398;SDS011;49533;-34.520;150.798;2023-02-15T12:43:35;2.38;;;1.13;;
63398;SDS011;49533;-34.520;150.798;2023-02-15T12:46:13;6.30;;;0.98;;
63398;SDS011;49533;-34.520;150.798;2023-02-15T12:49:04;3.45;;;1.00;;
63398;SDS011;49533;-34.520;150.798;2023-02-15T12:51:48;3.38;;;0.82;;
63398;SDS011;49533;-34.520;150.798;2023-02-15T12:54:28;2.03;;;0.88;;
63398;SDS011;49533;-34.520;150.798;2023-02-15T12:56:58;2.85;;;0.85;;
63398;SDS011;49533;-34.520;150.798;2023-02-15T12:59:47;3.60;;;0.80;;
63398;SDS011;49533;-34.520;150.798;2023-02-15T13:02:19;4.50;;;1.30;;
63398;SDS011;49533;-34.520;150.798;2023-02-15T13:04:50;1.77;;;1.02;;
63398;SDS011;49533;-34.520;150.798;2023-02-15T13:07:18;1.85;;;0.70;;
63398;SDS011;49533;-34.520;150.798;2023-02-15T13:09:46;3.40;;;1.00;;
63398;SDS011;49533;-34.520;150.798;2023-02-15T13:12:20;3.85;;;1.13;;
63398;SDS011;49533;-34.520;150.798;2023-02-15T13:14:50;2.08;;;1.00;;
63398;SDS011;49533;-34.520;150.798;2023-02-15T13:17:24;1.70;;;0.80;;
63398;SDS011;49533;-34.520;150.798;2023-02-15T13:19:56;2.22;;;0.80;;
63398;SDS011;49533;-34.520;150.798;2023-02-15T13:22:32;3.20;;;0.70;;
63398;SDS011;49533;-34.520;150.798;2023-02-15T13:25:14;3.47;;;0.88;;
63398;SDS011;49533;-34.520;150.798;2023-02-15T13:27:48;2.13;;;0.73;;
63398;SDS011;49533;-34.520;150.798;2023-02-15T13:30:28;3.05;;;1.13;;
63398;SDS011;49533;-34.520;150.798;2023-02-15T13:33:03;3.67;;;0.88;;
63398;SDS011;49533;-34.520;150.798;2023-02-15T13:35:36;5.82;;;0.90;;
63398;SDS011;49533;-34.520;150.798;2023-02-15T13:38:13;3.67;;;1.20;;
63398;SDS011;49533;-34.520;150.798;2023-02-15T13:41:01;1.52;;;0.60;;
63398;SDS011;49533;-34.520;150.798;2023-02-15T13:43:42;3.03;;;0.90;;
63398;SDS011;49533;-34.520;150.798;2023-02-15T13:46:36;3.03;;;0.90;;
63398;SDS011;49533;-34.520;150.798;2023-02-15T13:52:15;1.95;;;0.63;;
63398;SDS011;49533;-34.520;150.798;2023-02-15T13:57:52;2.83;;;1.02;;
63398;SDS011;49533;-34.520;150.798;2023-02-15T14:03:51;3.15;;;0.82;;
63398;SDS011;49533;-34.520;150.798;2023-02-15T14:06:38;3.00;;;1.33;;
63398;SDS011;49533;-34.520;150.798;2023-02-15T14:12:24;1.00;;;0.60;;
63398;SDS011;49533;-34.520;150.798;2023-02-15T14:15:05;2.30;;;1.02;;
63398;SDS011;49533;-34.520;150.798;2023-02-15T14:17:43;2.22;;;1.00;;
63398;SDS011;49533;-34.520;150.798;2023-02-15T14:20:24;1.98;;;0.70;;
63398;SDS011;49533;-34.520;150.798;2023-02-15T14:23:02;1.55;;;0.57;;
63398;SDS011;49533;-34.520;150.798;2023-02-15T14:25:55;2.85;;;1.02;;
63398;SDS011;49533;-34.520;150.798;2023-02-15T14:28:34;2.15;;;0.70;;
63398;SDS011;49533;-34.520;150.798;2023-02-15T14:31:12;1.20;;;0.60;;
63398;SDS011;49533;-34.520;150.798;2023-02-15T14:33:47;0.80;;;0.50;;
63398;SDS011;49533;-34.520;150.798;2023-02-15T14:36:21;1.10;;;0.32;;
63398;SDS011;49533;-34.520;150.798;2023-02-15T14:39:06;1.23;;;0.60;;
63398;SDS011;49533;-34.520;150.798;2023-02-15T14:42:04;4.22;;;0.68;;
63398;SDS011;49533;-34.520;150.798;2023-02-15T14:44:47;2.30;;;0.90;;
63398;SDS011;49533;-34.520;150.798;2023-02-15T14:47:26;2.17;;;1.00;;
63398;SDS011;49533;-34.520;150.798;2023-02-15T14:56:05;2.28;;;0.63;;
63398;SDS011;49533;-34.520;150.798;2023-02-15T15:01:42;2.03;;;0.82;;
63398;SDS011;49533;-34.520;150.798;2023-02-15T15:04:27;4.00;;;0.77;;
63398;SDS011;49533;-34.520;150.798;2023-02-15T15:07:08;3.28;;;1.20;;
63398;SDS011;49533;-34.520;150.798;2023-02-15T15:10:00;3.55;;;1.08;;
63398;SDS011;49533;-34.520;150.798;2023-02-15T15:12:42;4.38;;;0.98;;
63398;SDS011;49533;-34.520;150.798;2023-02-15T15:15:12;1.52;;;0.77;;
63398;SDS011;49533;-34.520;150.798;2023-02-15T15:18:02;1.92;;;0.98;;
63398;SDS011;49533;-34.520;150.798;2023-02-15T15:26:20;2.83;;;0.90;;
63398;SDS011;49533;-34.520;150.798;2023-02-15T15:28:52;2.92;;;1.20;;
63398;SDS011;49533;-34.520;150.798;2023-02-15T15:31:26;2.60;;;0.73;;
63398;SDS011;49533;-34.520;150.798;2023-02-15T15:43:19;5.00;;;0.75;;
63398;SDS011;49533;-34.520;150.798;2023-02-15T15:46:05;1.75;;;0.65;;
63398;SDS011;49533;-34.520;150.798;2023-02-15T15:48:41;5.18;;;1.42;;
63398;SDS011;49533;-34.520;150.798;2023-02-15T15:51:11;2.88;;;1.05;;